sensor_id;sensor_type;location;lat;lon;timestamp;temperature;humidity
20732;DHT22;10527;52.124;5.196;2023-07-09T00:02:18;25.80;99.90
20732;DHT22;10527;52.124;5.196;2023-07-09T00:04:46;25.70;99.90
20732;DHT22;10527;52.124;5.196;2023-07-09T00:07:28;25.70;99.90
20732;DHT22;10527;52.124;5.196;2023-07-09T00:09:59;25.70;99.90
20732;DHT22;10527;52.124;5.196;2023-07-09T00:12:26;25.70;99.90
20732;DHT22;10527;52.124;5.196;2023-07-09T00:14:53;25.60;99.90
20732;DHT22;10527;52.124;5.196;2023-07-09T00:19:53;25.60;99.90
20732;DHT22;10527;52.124;5.196;2023-07-09T00:22:20;25.50;99.90
20732;DHT22;10527;52.124;5.196;2023-07-09T00:24:50;25.50;99.90
20732;DHT22;10527;52.124;5.196;2023-07-09T00:27:19;25.50;99.90
20732;DHT22;10527;52.124;5.196;2023-07-09T00:29:47;25.40;99.90
20732;DHT22;10527;52.124;5.196;2023-07-09T00:32:17;25.50;99.90
20732;DHT22;10527;52.124;5.196;2023-07-09T00:34:47;25.50;99.90
20732;DHT22;10527;52.124;5.196;2023-07-09T00:37:20;25.50;99.90
20732;DHT22;10527;52.124;5.196;2023-07-09T00:39:52;25.50;99.90
20732;DHT22;10527;52.124;5.196;2023-07-09T00:42:21;25.40;99.90
20732;DHT22;10527;52.124;5.196;2023-07-09T00:44:52;25.30;99.90
20732;DHT22;10527;52.124;5.196;2023-07-09T00:47:42;25.30;99.90
20732;DHT22;10527;52.124;5.196;2023-07-09T00:52:55;25.20;99.90
20732;DHT22;10527;52.124;5.196;2023-07-09T00:55:28;25.30;99.90
20732;DHT22;10527;52.124;5.196;2023-07-09T00:58:01;25.20;99.90
20732;DHT22;10527;52.124;5.196;2023-07-09T01:00:43;25.20;99.90
20732;DHT22;10527;52.124;5.196;2023-07-09T01:03:34;25.10;99.90
20732;DHT22;10527;52.124;5.196;2023-07-09T01:06:05;25.10;99.90
20732;DHT22;10527;52.124;5.196;2023-07-09T01:08:35;25.00;99.90
20732;DHT22;10527;52.124;5.196;2023-07-09T01:11:03;24.90;99.90
20732;DHT22;10527;52.124;5.196;2023-07-09T01:13:35;24.90;99.90
20732;DHT22;10527;52.124;5.196;2023-07-09T01:16:02;24.90;99.90
20732;DHT22;10527;52.124;5.196;2023-07-09T01:18:29;24.90;99.90
20732;DHT22;10527;52.124;5.196;2023-07-09T01:21:02;24.90;99.90
20732;DHT22;10527;52.124;5.196;2023-07-09T01:23:33;24.90;99.90
20732;DHT22;10527;52.124;5.196;2023-07-09T01:26:01;24.90;99.90
20732;DHT22;10527;52.124;5.196;2023-07-09T01:28:28;24.90;99.90
20732;DHT22;10527;52.124;5.196;2023-07-09T01:30:55;24.80;99.90
20732;DHT22;10527;52.124;5.196;2023-07-09T01:33:23;24.80;99.90
20732;DHT22;10527;52.124;5.196;2023-07-09T01:35:50;24.70;99.90
20732;DHT22;10527;52.124;5.196;2023-07-09T01:38:19;24.70;99.90
20732;DHT22;10527;52.124;5.196;2023-07-09T01:40:47;24.70;99.90
20732;DHT22;10527;52.124;5.196;2023-07-09T01:43:13;24.70;99.90
20732;DHT22;10527;52.124;5.196;2023-07-09T01:45:40;24.60;99.90
20732;DHT22;10527;52.124;5.196;2023-07-09T01:48:07;24.60;99.90
20732;DHT22;10527;52.124;5.196;2023-07-09T01:50:43;24.50;99.90
20732;DHT22;10527;52.124;5.196;2023-07-09T01:53:15;24.50;99.90
20732;DHT22;10527;52.124;5.196;2023-07-09T01:55:44;24.40;99.90
20732;DHT22;10527;52.124;5.196;2023-07-09T01:58:12;24.40;99.90
20732;DHT22;10527;52.124;5.196;2023-07-09T02:00:38;24.40;99.90
20732;DHT22;10527;52.124;5.196;2023-07-09T02:03:08;24.40;99.90
20732;DHT22;10527;52.124;5.196;2023-07-09T02:05:35;24.40;99.90
20732;DHT22;10527;52.124;5.196;2023-07-09T02:08:03;24.30;99.90
20732;DHT22;10527;52.124;5.196;2023-07-09T02:10:31;24.20;99.90
20732;DHT22;10527;52.124;5.196;2023-07-09T02:12:57;24.30;99.90
20732;DHT22;10527;52.124;5.196;2023-07-09T02:15:24;24.30;99.90
20732;DHT22;10527;52.124;5.196;2023-07-09T02:17:51;24.20;99.90
20732;DHT22;10527;52.124;5.196;2023-07-09T02:20:19;24.30;99.90
20732;DHT22;10527;52.124;5.196;2023-07-09T02:22:49;24.10;99.90
20732;DHT22;10527;52.124;5.196;2023-07-09T02:25:17;24.00;99.90
20732;DHT22;10527;52.124;5.196;2023-07-09T02:27:44;24.10;99.90
20732;DHT22;10527;52.124;5.196;2023-07-09T02:30:11;24.10;99.90
20732;DHT22;10527;52.124;5.196;2023-07-09T02:32:38;24.10;99.90
20732;DHT22;10527;52.124;5.196;2023-07-09T02:35:07;24.10;99.90
20732;DHT22;10527;52.124;5.196;2023-07-09T02:37:34;24.10;99.90
20732;DHT22;10527;52.124;5.196;2023-07-09T02:40:01;24.00;99.90
20732;DHT22;10527;52.124;5.196;2023-07-09T02:42:35;23.90;99.90
20732;DHT22;10527;52.124;5.196;2023-07-09T02:45:03;23.90;99.90
20732;DHT22;10527;52.124;5.196;2023-07-09T02:47:31;23.90;99.90
20732;DHT22;10527;52.124;5.196;2023-07-09T02:49:58;23.90;99.90
20732;DHT22;10527;52.124;5.196;2023-07-09T02:52:25;23.90;99.90
20732;DHT22;10527;52.124;5.196;2023-07-09T02:54:53;23.90;99.90
20732;DHT22;10527;52.124;5.196;2023-07-09T02:57:20;23.90;99.90
20732;DHT22;10527;52.124;5.196;2023-07-09T02:59:47;23.80;99.90
20732;DHT22;10527;52.124;5.196;2023-07-09T03:02:14;23.80;99.90
20732;DHT22;10527;52.124;5.196;2023-07-09T03:04:41;23.80;99.90
20732;DHT22;10527;52.124;5.196;2023-07-09T03:07:07;23.80;99.90
20732;DHT22;10527;52.124;5.196;2023-07-09T03:09:34;23.70;99.90
20732;DHT22;10527;52.124;5.196;2023-07-09T03:12:01;23.70;99.90
20732;DHT22;10527;52.124;5.196;2023-07-09T03:14:28;23.60;99.90
20732;DHT22;10527;52.124;5.196;2023-07-09T03:16:55;23.60;99.90
20732;DHT22;10527;52.124;5.196;2023-07-09T03:19:23;23.60;99.90
20732;DHT22;10527;52.124;5.196;2023-07-09T03:21:50;23.60;99.90
20732;DHT22;10527;52.124;5.196;2023-07-09T03:24:16;23.50;99.90
20732;DHT22;10527;52.124;5.196;2023-07-09T03:26:46;23.50;99.90
20732;DHT22;10527;52.124;5.196;2023-07-09T03:29:14;23.40;99.90
20732;DHT22;10527;52.124;5.196;2023-07-09T03:31:41;23.50;99.90
20732;DHT22;10527;52.124;5.196;2023-07-09T03:34:08;23.50;99.90
20732;DHT22;10527;52.124;5.196;2023-07-09T03:36:35;23.50;99.90
20732;DHT22;10527;52.124;5.196;2023-07-09T03:39:06;23.40;99.90
20732;DHT22;10527;52.124;5.196;2023-07-09T03:41:34;23.40;99.90
20732;DHT22;10527;52.124;5.196;2023-07-09T03:44:02;23.30;99.90
20732;DHT22;10527;52.124;5.196;2023-07-09T03:46:29;23.30;99.90
20732;DHT22;10527;52.124;5.196;2023-07-09T03:48:59;23.30;99.90
20732;DHT22;10527;52.124;5.196;2023-07-09T03:51:26;23.30;99.90
20732;DHT22;10527;52.124;5.196;2023-07-09T03:53:53;23.30;99.90
20732;DHT22;10527;52.124;5.196;2023-07-09T03:56:20;23.30;99.90
20732;DHT22;10527;52.124;5.196;2023-07-09T03:58:47;23.30;99.90
20732;DHT22;10527;52.124;5.196;2023-07-09T04:01:14;23.40;99.90
20732;DHT22;10527;52.124;5.196;2023-07-09T04:03:43;23.40;99.90
20732;DHT22;10527;52.124;5.196;2023-07-09T04:06:10;23.30;99.90
20732;DHT22;10527;52.124;5.196;2023-07-09T04:08:37;23.40;99.90
20732;DHT22;10527;52.124;5.196;2023-07-09T04:11:04;23.30;99.90
20732;DHT22;10527;52.124;5.196;2023-07-09T04:13:31;23.30;99.90
20732;DHT22;10527;52.124;5.196;2023-07-09T04:15:59;23.30;99.90
20732;DHT22;10527;52.124;5.196;2023-07-09T04:18:27;23.30;99.90
20732;DHT22;10527;52.124;5.196;2023-07-09T04:20:53;23.30;99.90
20732;DHT22;10527;52.124;5.196;2023-07-09T04:23:20;23.30;99.90
20732;DHT22;10527;52.124;5.196;2023-07-09T04:25:47;23.30;99.90
20732;DHT22;10527;52.124;5.196;2023-07-09T04:28:15;23.30;99.90
20732;DHT22;10527;52.124;5.196;2023-07-09T04:30:49;23.30;99.90
20732;DHT22;10527;52.124;5.196;2023-07-09T04:33:19;23.30;99.90
20732;DHT22;10527;52.124;5.196;2023-07-09T04:35:48;23.30;99.90
20732;DHT22;10527;52.124;5.196;2023-07-09T04:38:16;23.30;99.90
20732;DHT22;10527;52.124;5.196;2023-07-09T04:40:43;23.30;99.90
20732;DHT22;10527;52.124;5.196;2023-07-09T04:43:13;23.40;99.90
20732;DHT22;10527;52.124;5.196;2023-07-09T04:45:39;23.30;99.90
20732;DHT22;10527;52.124;5.196;2023-07-09T04:48:07;23.30;99.90
20732;DHT22;10527;52.124;5.196;2023-07-09T04:50:34;23.30;99.90
20732;DHT22;10527;52.124;5.196;2023-07-09T04:53:01;23.30;99.90
20732;DHT22;10527;52.124;5.196;2023-07-09T04:55:28;23.30;99.90
20732;DHT22;10527;52.124;5.196;2023-07-09T04:57:55;23.30;99.90
20732;DHT22;10527;52.124;5.196;2023-07-09T05:00:22;23.30;99.90
20732;DHT22;10527;52.124;5.196;2023-07-09T05:02:49;23.40;99.90
20732;DHT22;10527;52.124;5.196;2023-07-09T05:05:16;23.50;99.90
20732;DHT22;10527;52.124;5.196;2023-07-09T05:07:43;23.50;99.90
20732;DHT22;10527;52.124;5.196;2023-07-09T05:10:10;23.50;99.90
20732;DHT22;10527;52.124;5.196;2023-07-09T05:12:53;23.50;99.90
20732;DHT22;10527;52.124;5.196;2023-07-09T05:15:22;23.40;99.90
20732;DHT22;10527;52.124;5.196;2023-07-09T05:17:51;23.40;99.90
20732;DHT22;10527;52.124;5.196;2023-07-09T05:20:18;23.40;99.90
20732;DHT22;10527;52.124;5.196;2023-07-09T05:22:45;23.50;99.90
20732;DHT22;10527;52.124;5.196;2023-07-09T05:25:12;23.60;99.90
20732;DHT22;10527;52.124;5.196;2023-07-09T05:27:39;23.70;99.90
20732;DHT22;10527;52.124;5.196;2023-07-09T05:30:06;23.70;99.90
20732;DHT22;10527;52.124;5.196;2023-07-09T05:32:34;23.80;99.90
20732;DHT22;10527;52.124;5.196;2023-07-09T05:35:03;23.90;99.90
20732;DHT22;10527;52.124;5.196;2023-07-09T05:37:31;23.90;99.90
20732;DHT22;10527;52.124;5.196;2023-07-09T05:39:57;23.90;99.90
20732;DHT22;10527;52.124;5.196;2023-07-09T05:42:26;24.00;99.90
20732;DHT22;10527;52.124;5.196;2023-07-09T05:44:52;23.90;99.90
20732;DHT22;10527;52.124;5.196;2023-07-09T05:47:19;23.90;99.90
20732;DHT22;10527;52.124;5.196;2023-07-09T05:49:46;24.00;99.90
20732;DHT22;10527;52.124;5.196;2023-07-09T05:52:17;24.10;99.90
20732;DHT22;10527;52.124;5.196;2023-07-09T05:54:45;24.10;99.90
20732;DHT22;10527;52.124;5.196;2023-07-09T05:57:12;24.10;99.90
20732;DHT22;10527;52.124;5.196;2023-07-09T05:59:39;24.10;99.90
20732;DHT22;10527;52.124;5.196;2023-07-09T06:02:11;24.20;99.90
20732;DHT22;10527;52.124;5.196;2023-07-09T06:04:38;24.30;99.90
20732;DHT22;10527;52.124;5.196;2023-07-09T06:07:06;24.30;99.90
20732;DHT22;10527;52.124;5.196;2023-07-09T06:09:33;24.40;99.90
20732;DHT22;10527;52.124;5.196;2023-07-09T06:12:01;24.50;99.90
20732;DHT22;10527;52.124;5.196;2023-07-09T06:14:30;24.60;99.90
20732;DHT22;10527;52.124;5.196;2023-07-09T06:16:59;24.60;99.90
20732;DHT22;10527;52.124;5.196;2023-07-09T06:19:27;24.70;99.90
20732;DHT22;10527;52.124;5.196;2023-07-09T06:21:53;24.80;99.90
20732;DHT22;10527;52.124;5.196;2023-07-09T06:24:20;24.80;99.90
20732;DHT22;10527;52.124;5.196;2023-07-09T06:26:47;24.90;99.90
20732;DHT22;10527;52.124;5.196;2023-07-09T06:29:14;24.90;99.90
20732;DHT22;10527;52.124;5.196;2023-07-09T06:31:41;24.90;99.90
20732;DHT22;10527;52.124;5.196;2023-07-09T06:34:09;25.00;99.90
20732;DHT22;10527;52.124;5.196;2023-07-09T06:36:36;25.00;99.90
20732;DHT22;10527;52.124;5.196;2023-07-09T06:39:03;25.10;99.90
20732;DHT22;10527;52.124;5.196;2023-07-09T06:41:32;25.20;99.90
20732;DHT22;10527;52.124;5.196;2023-07-09T06:44:08;25.20;99.90
20732;DHT22;10527;52.124;5.196;2023-07-09T06:46:36;25.20;99.90
20732;DHT22;10527;52.124;5.196;2023-07-09T06:49:03;25.30;99.90
20732;DHT22;10527;52.124;5.196;2023-07-09T06:51:34;25.40;99.90
20732;DHT22;10527;52.124;5.196;2023-07-09T06:54:00;25.50;99.90
20732;DHT22;10527;52.124;5.196;2023-07-09T06:56:27;25.50;99.90
20732;DHT22;10527;52.124;5.196;2023-07-09T06:58:54;25.50;99.90
20732;DHT22;10527;52.124;5.196;2023-07-09T07:01:21;25.60;99.90
20732;DHT22;10527;52.124;5.196;2023-07-09T07:03:48;25.60;99.90
20732;DHT22;10527;52.124;5.196;2023-07-09T07:06:16;25.70;99.90
20732;DHT22;10527;52.124;5.196;2023-07-09T07:08:43;25.80;99.90
20732;DHT22;10527;52.124;5.196;2023-07-09T07:11:10;25.90;99.90
20732;DHT22;10527;52.124;5.196;2023-07-09T07:13:39;26.00;99.90
20732;DHT22;10527;52.124;5.196;2023-07-09T07:16:10;26.00;99.90
20732;DHT22;10527;52.124;5.196;2023-07-09T07:18:38;26.10;99.90
20732;DHT22;10527;52.124;5.196;2023-07-09T07:21:05;26.20;99.90
20732;DHT22;10527;52.124;5.196;2023-07-09T07:23:33;26.20;99.90
20732;DHT22;10527;52.124;5.196;2023-07-09T07:26:00;26.30;99.90
20732;DHT22;10527;52.124;5.196;2023-07-09T07:28:28;26.40;99.90
20732;DHT22;10527;52.124;5.196;2023-07-09T07:31:03;26.40;99.90
20732;DHT22;10527;52.124;5.196;2023-07-09T07:33:31;26.50;99.90
20732;DHT22;10527;52.124;5.196;2023-07-09T07:35:58;26.50;99.90
20732;DHT22;10527;52.124;5.196;2023-07-09T07:38:28;26.50;99.90
20732;DHT22;10527;52.124;5.196;2023-07-09T07:40:55;26.60;99.90
20732;DHT22;10527;52.124;5.196;2023-07-09T07:43:22;26.70;99.90
20732;DHT22;10527;52.124;5.196;2023-07-09T07:45:49;26.70;99.90
20732;DHT22;10527;52.124;5.196;2023-07-09T07:48:16;26.90;99.90
20732;DHT22;10527;52.124;5.196;2023-07-09T07:50:43;27.00;99.90
20732;DHT22;10527;52.124;5.196;2023-07-09T07:53:12;27.00;99.90
20732;DHT22;10527;52.124;5.196;2023-07-09T07:55:40;27.00;99.90
20732;DHT22;10527;52.124;5.196;2023-07-09T07:58:12;27.00;99.90
20732;DHT22;10527;52.124;5.196;2023-07-09T08:00:40;27.20;99.90
20732;DHT22;10527;52.124;5.196;2023-07-09T08:03:07;27.10;99.90
20732;DHT22;10527;52.124;5.196;2023-07-09T08:05:34;27.10;99.90
20732;DHT22;10527;52.124;5.196;2023-07-09T08:08:00;27.20;99.90
20732;DHT22;10527;52.124;5.196;2023-07-09T08:10:27;27.30;99.90
20732;DHT22;10527;52.124;5.196;2023-07-09T08:12:55;27.30;99.90
20732;DHT22;10527;52.124;5.196;2023-07-09T08:15:27;27.50;99.90
20732;DHT22;10527;52.124;5.196;2023-07-09T08:17:54;27.70;99.90
20732;DHT22;10527;52.124;5.196;2023-07-09T08:20:21;27.80;99.90
20732;DHT22;10527;52.124;5.196;2023-07-09T08:22:48;27.90;99.90
20732;DHT22;10527;52.124;5.196;2023-07-09T08:25:15;28.10;99.90
20732;DHT22;10527;52.124;5.196;2023-07-09T08:27:42;28.30;99.90
20732;DHT22;10527;52.124;5.196;2023-07-09T08:30:09;28.20;99.90
20732;DHT22;10527;52.124;5.196;2023-07-09T08:32:36;28.30;99.90
20732;DHT22;10527;52.124;5.196;2023-07-09T08:35:03;28.30;99.90
20732;DHT22;10527;52.124;5.196;2023-07-09T08:37:50;28.20;99.90
20732;DHT22;10527;52.124;5.196;2023-07-09T08:40:18;28.50;99.90
20732;DHT22;10527;52.124;5.196;2023-07-09T08:42:52;28.80;99.90
20732;DHT22;10527;52.124;5.196;2023-07-09T08:48:29;29.00;99.90
20732;DHT22;10527;52.124;5.196;2023-07-09T08:56:24;29.40;99.90
20732;DHT22;10527;52.124;5.196;2023-07-09T08:58:55;29.50;99.90
20732;DHT22;10527;52.124;5.196;2023-07-09T09:04:34;29.70;99.90
20732;DHT22;10527;52.124;5.196;2023-07-09T09:07:19;29.80;99.90
20732;DHT22;10527;52.124;5.196;2023-07-09T09:13:16;30.20;99.90
20732;DHT22;10527;52.124;5.196;2023-07-09T09:15:47;30.40;99.90
20732;DHT22;10527;52.124;5.196;2023-07-09T09:18:23;30.60;99.90
20732;DHT22;10527;52.124;5.196;2023-07-09T09:21:01;30.80;99.90
20732;DHT22;10527;52.124;5.196;2023-07-09T09:23:48;31.00;99.90
20732;DHT22;10527;52.124;5.196;2023-07-09T09:26:31;30.90;99.90
20732;DHT22;10527;52.124;5.196;2023-07-09T09:29:01;30.50;99.90
20732;DHT22;10527;52.124;5.196;2023-07-09T09:31:38;30.80;99.90
20732;DHT22;10527;52.124;5.196;2023-07-09T09:34:05;30.90;99.90
20732;DHT22;10527;52.124;5.196;2023-07-09T09:36:36;31.00;99.90
20732;DHT22;10527;52.124;5.196;2023-07-09T09:39:03;31.10;99.90
20732;DHT22;10527;52.124;5.196;2023-07-09T09:41:37;31.20;99.90
20732;DHT22;10527;52.124;5.196;2023-07-09T09:44:14;31.40;99.90
20732;DHT22;10527;52.124;5.196;2023-07-09T09:46:48;31.30;99.90
20732;DHT22;10527;52.124;5.196;2023-07-09T09:49:18;31.50;99.90
20732;DHT22;10527;52.124;5.196;2023-07-09T09:51:46;31.70;99.90
20732;DHT22;10527;52.124;5.196;2023-07-09T09:54:18;31.80;99.90
20732;DHT22;10527;52.124;5.196;2023-07-09T09:56:49;31.60;99.90
20732;DHT22;10527;52.124;5.196;2023-07-09T09:59:31;31.80;99.90
20732;DHT22;10527;52.124;5.196;2023-07-09T10:02:22;31.90;99.90
20732;DHT22;10527;52.124;5.196;2023-07-09T10:04:52;32.00;99.90
20732;DHT22;10527;52.124;5.196;2023-07-09T10:07:35;31.90;99.90
20732;DHT22;10527;52.124;5.196;2023-07-09T10:10:19;32.10;99.90
20732;DHT22;10527;52.124;5.196;2023-07-09T10:13:02;32.30;99.90
20732;DHT22;10527;52.124;5.196;2023-07-09T10:16:02;32.10;99.90
20732;DHT22;10527;52.124;5.196;2023-07-09T10:22:28;32.00;99.90
20732;DHT22;10527;52.124;5.196;2023-07-09T10:26:07;32.00;99.90
20732;DHT22;10527;52.124;5.196;2023-07-09T10:28:57;31.80;99.90
20732;DHT22;10527;52.124;5.196;2023-07-09T10:35:14;30.80;99.90
20732;DHT22;10527;52.124;5.196;2023-07-09T10:38:21;30.80;99.90
20732;DHT22;10527;52.124;5.196;2023-07-09T10:40:56;30.80;99.90
20732;DHT22;10527;52.124;5.196;2023-07-09T10:43:47;30.90;99.90
20732;DHT22;10527;52.124;5.196;2023-07-09T10:46:28;30.80;99.90
20732;DHT22;10527;52.124;5.196;2023-07-09T10:49:18;30.60;99.90
20732;DHT22;10527;52.124;5.196;2023-07-09T10:52:13;30.50;99.90
20732;DHT22;10527;52.124;5.196;2023-07-09T10:55:13;30.60;99.90
20732;DHT22;10527;52.124;5.196;2023-07-09T10:58:04;30.70;99.90
20732;DHT22;10527;52.124;5.196;2023-07-09T11:00:52;30.70;99.90
20732;DHT22;10527;52.124;5.196;2023-07-09T11:03:25;30.70;99.90
20732;DHT22;10527;52.124;5.196;2023-07-09T11:06:22;30.80;99.90
20732;DHT22;10527;52.124;5.196;2023-07-09T11:08:57;31.10;99.90
20732;DHT22;10527;52.124;5.196;2023-07-09T11:11:39;31.40;99.90
20732;DHT22;10527;52.124;5.196;2023-07-09T11:14:40;31.70;99.90
20732;DHT22;10527;52.124;5.196;2023-07-09T11:17:19;31.90;99.90
20732;DHT22;10527;52.124;5.196;2023-07-09T11:19:53;31.30;99.90
20732;DHT22;10527;52.124;5.196;2023-07-09T11:22:36;30.80;99.90
20732;DHT22;10527;52.124;5.196;2023-07-09T11:25:28;30.90;99.90
20732;DHT22;10527;52.124;5.196;2023-07-09T11:28:04;31.20;99.90
20732;DHT22;10527;52.124;5.196;2023-07-09T11:30:33;31.20;99.90
20732;DHT22;10527;52.124;5.196;2023-07-09T11:33:47;31.10;99.90
20732;DHT22;10527;52.124;5.196;2023-07-09T11:36:27;31.10;99.90
20732;DHT22;10527;52.124;5.196;2023-07-09T11:38:55;31.20;99.90
20732;DHT22;10527;52.124;5.196;2023-07-09T11:47:17;31.10;99.90
20732;DHT22;10527;52.124;5.196;2023-07-09T11:50:20;30.90;99.90
20732;DHT22;10527;52.124;5.196;2023-07-09T11:55:49;31.20;99.90
20732;DHT22;10527;52.124;5.196;2023-07-09T11:58:17;31.10;99.90
20732;DHT22;10527;52.124;5.196;2023-07-09T12:00:47;30.70;99.90
20732;DHT22;10527;52.124;5.196;2023-07-09T12:03:23;30.60;99.90
20732;DHT22;10527;52.124;5.196;2023-07-09T12:06:07;30.30;99.90
20732;DHT22;10527;52.124;5.196;2023-07-09T12:08:56;30.20;99.90
20732;DHT22;10527;52.124;5.196;2023-07-09T12:11:34;30.40;99.90
20732;DHT22;10527;52.124;5.196;2023-07-09T12:14:10;30.50;99.90
20732;DHT22;10527;52.124;5.196;2023-07-09T12:16:41;30.60;99.90
20732;DHT22;10527;52.124;5.196;2023-07-09T12:19:14;30.40;99.90
20732;DHT22;10527;52.124;5.196;2023-07-09T12:21:46;30.00;99.90
20732;DHT22;10527;52.124;5.196;2023-07-09T12:24:35;30.20;99.90
20732;DHT22;10527;52.124;5.196;2023-07-09T12:27:25;30.40;99.90
20732;DHT22;10527;52.124;5.196;2023-07-09T12:29:56;29.90;99.90
20732;DHT22;10527;52.124;5.196;2023-07-09T12:32:23;29.90;99.90
20732;DHT22;10527;52.124;5.196;2023-07-09T12:34:55;29.90;99.90
20732;DHT22;10527;52.124;5.196;2023-07-09T12:37:25;29.90;99.90
20732;DHT22;10527;52.124;5.196;2023-07-09T12:39:59;29.80;99.90
20732;DHT22;10527;52.124;5.196;2023-07-09T12:42:34;29.90;99.90
20732;DHT22;10527;52.124;5.196;2023-07-09T12:45:04;29.70;99.90
20732;DHT22;10527;52.124;5.196;2023-07-09T12:47:34;29.50;99.90
20732;DHT22;10527;52.124;5.196;2023-07-09T12:50:16;29.60;99.90
20732;DHT22;10527;52.124;5.196;2023-07-09T12:52:48;29.30;99.90
20732;DHT22;10527;52.124;5.196;2023-07-09T12:55:29;29.20;99.90
20732;DHT22;10527;52.124;5.196;2023-07-09T12:58:07;29.20;99.90
20732;DHT22;10527;52.124;5.196;2023-07-09T13:00:36;28.90;99.90
20732;DHT22;10527;52.124;5.196;2023-07-09T13:03:12;28.70;99.90
20732;DHT22;10527;52.124;5.196;2023-07-09T13:05:52;28.60;99.90
20732;DHT22;10527;52.124;5.196;2023-07-09T13:08:21;28.90;99.90
20732;DHT22;10527;52.124;5.196;2023-07-09T13:10:49;28.90;99.90
20732;DHT22;10527;52.124;5.196;2023-07-09T13:13:20;28.90;99.90
20732;DHT22;10527;52.124;5.196;2023-07-09T13:15:55;29.20;99.90
20732;DHT22;10527;52.124;5.196;2023-07-09T13:18:25;28.90;99.90
20732;DHT22;10527;52.124;5.196;2023-07-09T13:20:54;29.00;99.90
20732;DHT22;10527;52.124;5.196;2023-07-09T13:23:27;28.90;99.90
20732;DHT22;10527;52.124;5.196;2023-07-09T13:25:55;28.90;99.90
20732;DHT22;10527;52.124;5.196;2023-07-09T13:28:30;28.70;99.90
20732;DHT22;10527;52.124;5.196;2023-07-09T13:31:00;28.80;99.90
20732;DHT22;10527;52.124;5.196;2023-07-09T13:33:36;28.60;99.90
20732;DHT22;10527;52.124;5.196;2023-07-09T13:36:05;28.30;99.90
20732;DHT22;10527;52.124;5.196;2023-07-09T13:38:33;28.20;99.90
20732;DHT22;10527;52.124;5.196;2023-07-09T13:41:17;28.20;99.90
20732;DHT22;10527;52.124;5.196;2023-07-09T13:43:49;27.90;99.90
20732;DHT22;10527;52.124;5.196;2023-07-09T13:46:16;27.50;99.90
20732;DHT22;10527;52.124;5.196;2023-07-09T13:48:44;27.30;99.90
20732;DHT22;10527;52.124;5.196;2023-07-09T13:51:20;26.90;99.90
20732;DHT22;10527;52.124;5.196;2023-07-09T13:53:50;26.50;99.90
20732;DHT22;10527;52.124;5.196;2023-07-09T13:56:20;26.40;99.90
20732;DHT22;10527;52.124;5.196;2023-07-09T13:58:48;26.00;99.90
20732;DHT22;10527;52.124;5.196;2023-07-09T14:01:20;25.80;99.90
20732;DHT22;10527;52.124;5.196;2023-07-09T14:03:57;25.50;99.90
20732;DHT22;10527;52.124;5.196;2023-07-09T14:06:26;25.50;99.90
20732;DHT22;10527;52.124;5.196;2023-07-09T14:08:53;25.50;99.90
20732;DHT22;10527;52.124;5.196;2023-07-09T14:11:20;25.40;99.90
20732;DHT22;10527;52.124;5.196;2023-07-09T14:13:48;25.30;99.90
20732;DHT22;10527;52.124;5.196;2023-07-09T14:16:15;25.20;99.90
20732;DHT22;10527;52.124;5.196;2023-07-09T14:18:42;25.10;99.90
20732;DHT22;10527;52.124;5.196;2023-07-09T14:21:16;24.90;99.90
20732;DHT22;10527;52.124;5.196;2023-07-09T14:23:46;24.90;99.90
20732;DHT22;10527;52.124;5.196;2023-07-09T14:26:13;25.00;99.90
20732;DHT22;10527;52.124;5.196;2023-07-09T14:28:40;25.10;99.90
20732;DHT22;10527;52.124;5.196;2023-07-09T14:31:24;24.90;99.90
20732;DHT22;10527;52.124;5.196;2023-07-09T14:33:54;24.90;99.90
20732;DHT22;10527;52.124;5.196;2023-07-09T14:36:24;24.90;99.90
20732;DHT22;10527;52.124;5.196;2023-07-09T14:38:50;24.90;99.90
20732;DHT22;10527;52.124;5.196;2023-07-09T14:41:23;24.90;99.90
20732;DHT22;10527;52.124;5.196;2023-07-09T14:43:54;24.80;99.90
20732;DHT22;10527;52.124;5.196;2023-07-09T14:46:24;24.90;99.90
20732;DHT22;10527;52.124;5.196;2023-07-09T14:48:51;24.80;99.90
20732;DHT22;10527;52.124;5.196;2023-07-09T14:51:18;24.50;99.90
20732;DHT22;10527;52.124;5.196;2023-07-09T14:53:45;24.10;99.90
20732;DHT22;10527;52.124;5.196;2023-07-09T14:56:14;23.50;99.90
20732;DHT22;10527;52.124;5.196;2023-07-09T14:58:41;23.20;99.90
20732;DHT22;10527;52.124;5.196;2023-07-09T15:01:14;22.90;99.90
20732;DHT22;10527;52.124;5.196;2023-07-09T15:03:42;22.90;99.90
20732;DHT22;10527;52.124;5.196;2023-07-09T15:06:09;22.90;99.90
20732;DHT22;10527;52.124;5.196;2023-07-09T15:08:36;23.00;99.90
20732;DHT22;10527;52.124;5.196;2023-07-09T15:11:03;22.90;99.90
20732;DHT22;10527;52.124;5.196;2023-07-09T15:13:35;23.00;99.90
20732;DHT22;10527;52.124;5.196;2023-07-09T15:16:05;22.90;99.90
20732;DHT22;10527;52.124;5.196;2023-07-09T15:18:32;22.90;99.90
20732;DHT22;10527;52.124;5.196;2023-07-09T15:21:04;22.80;99.90
20732;DHT22;10527;52.124;5.196;2023-07-09T15:23:36;23.00;99.90
20732;DHT22;10527;52.124;5.196;2023-07-09T15:26:15;22.80;99.90
20732;DHT22;10527;52.124;5.196;2023-07-09T15:28:43;22.70;99.90
20732;DHT22;10527;52.124;5.196;2023-07-09T15:31:10;22.70;99.90
20732;DHT22;10527;52.124;5.196;2023-07-09T15:33:38;22.90;99.90
20732;DHT22;10527;52.124;5.196;2023-07-09T15:36:11;22.90;99.90
20732;DHT22;10527;52.124;5.196;2023-07-09T15:38:39;22.90;99.90
20732;DHT22;10527;52.124;5.196;2023-07-09T15:41:13;23.00;99.90
20732;DHT22;10527;52.124;5.196;2023-07-09T15:43:44;23.00;99.90
20732;DHT22;10527;52.124;5.196;2023-07-09T15:46:17;22.90;99.90
20732;DHT22;10527;52.124;5.196;2023-07-09T15:48:47;23.10;99.90
20732;DHT22;10527;52.124;5.196;2023-07-09T15:51:16;23.10;99.90
20732;DHT22;10527;52.124;5.196;2023-07-09T15:53:43;23.10;99.90
20732;DHT22;10527;52.124;5.196;2023-07-09T15:56:21;23.10;99.90
20732;DHT22;10527;52.124;5.196;2023-07-09T15:58:53;23.40;99.90
20732;DHT22;10527;52.124;5.196;2023-07-09T16:01:21;23.50;99.90
20732;DHT22;10527;52.124;5.196;2023-07-09T16:03:59;23.70;99.90
20732;DHT22;10527;52.124;5.196;2023-07-09T16:06:29;24.00;99.90
20732;DHT22;10527;52.124;5.196;2023-07-09T16:08:56;24.10;99.90
20732;DHT22;10527;52.124;5.196;2023-07-09T16:11:25;24.20;99.90
20732;DHT22;10527;52.124;5.196;2023-07-09T16:13:53;24.30;99.90
20732;DHT22;10527;52.124;5.196;2023-07-09T16:16:22;24.40;99.90
20732;DHT22;10527;52.124;5.196;2023-07-09T16:18:50;24.40;99.90
20732;DHT22;10527;52.124;5.196;2023-07-09T16:21:24;24.50;99.90
20732;DHT22;10527;52.124;5.196;2023-07-09T16:23:58;24.10;99.90
20732;DHT22;10527;52.124;5.196;2023-07-09T16:26:27;23.90;99.90
20732;DHT22;10527;52.124;5.196;2023-07-09T16:28:54;23.90;99.90
20732;DHT22;10527;52.124;5.196;2023-07-09T16:31:22;23.80;99.90
20732;DHT22;10527;52.124;5.196;2023-07-09T16:33:49;23.70;99.90